Time;durP1;ratioP1;P1;durP2;ratioP2;P2;SDS_P1;SDS_P2;PMS_P1;PMS_P2;Temp;Humidity;BMP_temperature;BMP_pressure;BME280_temperature;BME280_humidity;BME280_pressure;Samples;Min_cycle;Max_cycle;Signal;HPM_P1;HPM_P2
2022/01/05 00:02:07;;;;;;;6.32;0.70;;;3.00;99.90;;;;;;6155883;23;20099;-83
2022/01/05 00:04:33;;;;;;;5.07;0.50;;;3.00;99.90;;;;;;6181282;23;20028;-83
2022/01/05 00:06:59;;;;;;;7.43;1.15;;;2.90;99.90;;;;;;6156777;23;20013;-83
2022/01/05 00:09:25;;;;;;;3.83;0.65;;;2.90;99.90;;;;;;6180212;23;20080;-83
2022/01/05 00:11:50;;;;;;;4.15;0.30;;;2.90;99.90;;;;;;6183264;23;20013;-83
2022/01/05 00:14:16;;;;;;;3.40;0.63;;;2.90;99.90;;;;;;6183994;23;20132;-83
2022/01/05 00:16:42;;;;;;;3.03;0.40;;;2.90;99.90;;;;;;6184004;23;20297;-82
2022/01/05 00:19:08;;;;;;;4.15;0.43;;;3.00;99.90;;;;;;6158661;23;20511;-83
2022/01/05 00:21:34;;;;;;;4.68;0.47;;;3.10;99.90;;;;;;6183256;23;20064;-83
2022/01/05 00:23:59;;;;;;;4.18;0.82;;;3.10;99.90;;;;;;6157929;23;20451;-83
2022/01/05 00:26:27;;;;;;;4.07;0.57;;;3.10;99.90;;;;;;6183015;23;20376;-83
2022/01/05 00:28:53;;;;;;;6.78;0.50;;;3.10;99.90;;;;;;6183736;23;20097;-83
2022/01/05 00:31:19;;;;;;;6.32;0.60;;;3.10;99.90;;;;;;6184082;23;20068;-83
2022/01/05 00:33:44;;;;;;;3.03;0.90;;;3.10;99.90;;;;;;6183791;23;20021;-83
2022/01/05 00:36:10;;;;;;;4.18;0.82;;;3.00;99.90;;;;;;6183395;23;20017;-83
2022/01/05 00:38:36;;;;;;;7.65;0.50;;;3.00;99.90;;;;;;6182736;23;20024;-83
2022/01/05 00:41:01;;;;;;;3.72;0.40;;;2.90;99.90;;;;;;6157972;23;20028;-83
2022/01/05 00:43:27;;;;;;;6.20;0.90;;;2.90;99.90;;;;;;6158583;23;20015;-83
2022/01/05 00:45:53;;;;;;;6.70;0.55;;;2.90;99.90;;;;;;6182713;23;20021;-83
2022/01/05 00:48:19;;;;;;;4.35;0.43;;;2.90;99.90;;;;;;6183797;23;20087;-83
2022/01/05 00:50:44;;;;;;;6.07;0.77;;;2.90;99.90;;;;;;6183682;23;20017;-82
2022/01/05 00:53:10;;;;;;;5.20;0.52;;;2.90;99.90;;;;;;6158301;23;20012;-83
2022/01/05 00:55:36;;;;;;;7.32;0.82;;;3.00;99.90;;;;;;6182406;23;20135;-83
2022/01/05 00:58:01;;;;;;;7.95;0.57;;;3.00;99.90;;;;;;6183427;23;20001;-84
2022/01/05 01:00:27;;;;;;;5.97;0.40;;;2.90;99.90;;;;;;6181983;23;20076;-83
2022/01/05 01:02:52;;;;;;;7.30;0.85;;;2.90;99.90;;;;;;6181688;23;20096;-83
2022/01/05 01:05:18;;;;;;;7.65;0.50;;;2.90;99.90;;;;;;6182421;23;20017;-83
2022/01/05 01:07:45;;;;;;;5.97;0.75;;;2.90;99.90;;;;;;6181599;23;20017;-82
2022/01/05 01:10:10;;;;;;;8.30;0.65;;;2.80;99.90;;;;;;6182136;23;20316;-83
2022/01/05 01:12:36;;;;;;;9.65;0.88;;;2.80;99.90;;;;;;6182868;23;20016;-83
2022/01/05 01:15:07;;;;;;;8.20;0.70;;;2.80;99.90;;;;;;6182927;23;20496;-83
2022/01/05 01:17:33;;;;;;;6.80;0.82;;;2.80;99.90;;;;;;6157417;23;20001;-83
2022/01/05 01:19:59;;;;;;;6.30;0.60;;;2.80;99.90;;;;;;6156819;23;20510;-84
2022/01/05 01:22:27;;;;;;;4.03;0.45;;;2.70;99.90;;;;;;6156594;23;20063;-83
2022/01/05 01:24:53;;;;;;;4.93;0.88;;;2.70;99.90;;;;;;6181327;23;20028;-83
2022/01/05 01:27:19;;;;;;;5.82;0.82;;;2.70;99.90;;;;;;6182584;23;20013;-83
2022/01/05 01:29:44;;;;;;;6.95;0.70;;;2.70;99.90;;;;;;6182072;23;20351;-83
2022/01/05 01:32:10;;;;;;;5.55;1.20;;;2.90;99.90;;;;;;6157335;23;20067;-83
2022/01/05 01:34:35;;;;;;;8.25;1.05;;;3.00;99.90;;;;;;6181719;23;20020;-83
2022/01/05 01:37:01;;;;;;;7.18;0.93;;;3.00;99.90;;;;;;6156690;23;20514;-83
2022/01/05 01:39:27;;;;;;;8.23;1.00;;;3.10;99.90;;;;;;6181595;23;20017;-83
2022/01/05 01:41:52;;;;;;;8.15;0.93;;;3.10;99.90;;;;;;6182044;23;20092;-83
2022/01/05 01:44:18;;;;;;;4.93;0.70;;;3.20;99.90;;;;;;6182666;23;20012;-83
2022/01/05 01:46:44;;;;;;;6.28;1.10;;;3.20;99.90;;;;;;6181480;23;20317;-83
2022/01/05 01:49:10;;;;;;;6.85;0.65;;;3.20;99.90;;;;;;6157582;23;20464;-83
2022/01/05 01:51:36;;;;;;;6.07;0.73;;;3.20;99.90;;;;;;6181659;23;20023;-83
2022/01/05 01:54:02;;;;;;;5.40;0.77;;;3.20;99.90;;;;;;6182349;23;20048;-83
2022/01/05 01:56:32;;;;;;;10.40;0.93;;;3.20;99.90;;;;;;6157278;23;20044;-83
2022/01/05 01:58:58;;;;;;;6.72;1.17;;;3.20;99.90;;;;;;6182722;23;20032;-83
2022/01/05 02:01:24;;;;;;;6.60;0.80;;;3.20;99.90;;;;;;6183567;23;20013;-83
2022/01/05 02:03:50;;;;;;;5.82;1.00;;;3.30;99.90;;;;;;6181657;23;20028;-83
2022/01/05 02:06:15;;;;;;;7.93;0.60;;;3.30;99.90;;;;;;6182657;23;20040;-83
2022/01/05 02:08:41;;;;;;;8.80;0.75;;;3.30;99.90;;;;;;6156041;23;20164;-83
2022/01/05 02:11:07;;;;;;;11.23;1.80;;;3.30;99.90;;;;;;6182581;23;20009;-83
2022/01/05 02:13:34;;;;;;;7.93;1.08;;;3.40;99.90;;;;;;6182097;23;20462;-83
2022/01/05 02:16:00;;;;;;;6.25;1.00;;;3.40;99.90;;;;;;6157483;23;20017;-83
2022/01/05 02:21:20;;;;;;;6.50;1.05;;;3.40;99.90;;;;;;6181456;23;20451;-83
2022/01/05 02:23:46;;;;;;;3.47;0.60;;;3.30;99.90;;;;;;6167526;23;20060;-83
2022/01/05 02:26:11;;;;;;;10.00;1.25;;;3.40;99.90;;;;;;6157300;23;20076;-83
2022/01/05 02:28:39;;;;;;;7.32;1.15;;;3.30;99.90;;;;;;6182044;23;20040;-83
2022/01/05 02:31:04;;;;;;;11.20;1.05;;;3.40;99.90;;;;;;6157679;23;20433;-83
2022/01/05 02:33:32;;;;;;;6.15;1.30;;;3.40;99.90;;;;;;6156385;23;20056;-83
2022/01/05 02:35:57;;;;;;;8.60;1.40;;;3.40;99.90;;;;;;6182580;23;20024;-83
2022/01/05 02:38:23;;;;;;;13.95;1.50;;;3.40;99.90;;;;;;6155827;23;20021;-83
2022/01/05 02:40:50;;;;;;;7.45;0.70;;;3.50;99.90;;;;;;6156048;23;20451;-83
2022/01/05 02:43:16;;;;;;;14.30;1.35;;;3.50;99.90;;;;;;6181560;23;20068;-83
2022/01/05 02:45:42;;;;;;;13.48;1.20;;;3.50;99.90;;;;;;6181921;23;20009;-83
2022/01/05 02:48:07;;;;;;;15.77;1.10;;;3.50;99.90;;;;;;6181405;23;20041;-83
2022/01/05 02:50:34;;;;;;;5.95;1.00;;;3.50;99.90;;;;;;6157110;23;20504;-83
2022/01/05 02:52:59;;;;;;;9.52;1.00;;;3.50;99.90;;;;;;6155556;23;20027;-83
2022/01/05 02:55:25;;;;;;;8.23;1.17;;;3.50;99.90;;;;;;6181254;23;20017;-83
2022/01/05 02:57:51;;;;;;;10.73;2.25;;;3.60;99.90;;;;;;6181943;23;20021;-83
2022/01/05 03:00:17;;;;;;;8.38;1.52;;;3.70;99.90;;;;;;6182286;23;20020;-83
2022/01/05 03:02:43;;;;;;;8.45;1.10;;;3.80;99.90;;;;;;6157708;23;20017;-83
2022/01/05 03:05:10;;;;;;;13.82;2.08;;;3.80;99.90;;;;;;6184228;23;20332;-83
2022/01/05 03:07:39;;;;;;;8.07;1.30;;;3.80;99.90;;;;;;6181663;23;20019;-83
2022/01/05 03:10:07;;;;;;;7.13;1.33;;;3.80;99.90;;;;;;6180943;23;20063;-84
2022/01/05 03:12:33;;;;;;;10.65;0.85;;;3.90;99.90;;;;;;6182082;23;20024;-83
2022/01/05 03:14:59;;;;;;;9.30;1.30;;;4.00;99.90;;;;;;6181619;23;20017;-83
2022/01/05 03:17:25;;;;;;;9.55;1.50;;;4.00;99.90;;;;;;6182344;23;20020;-83
2022/01/05 03:19:50;;;;;;;11.93;1.10;;;4.10;99.90;;;;;;6181038;23;20021;-83
2022/01/05 03:22:16;;;;;;;8.88;1.10;;;4.10;99.90;;;;;;6157022;23;20522;-84
2022/01/05 03:24:41;;;;;;;9.15;1.02;;;4.20;99.90;;;;;;6181447;23;20078;-84
2022/01/05 03:27:07;;;;;;;6.88;0.90;;;4.20;99.90;;;;;;6157142;23;20009;-83
2022/01/05 03:29:33;;;;;;;9.32;1.15;;;4.30;99.90;;;;;;6157220;23;20017;-83
2022/01/05 03:31:59;;;;;;;13.50;0.88;;;4.40;99.90;;;;;;6180831;23;20189;-83
2022/01/05 03:34:24;;;;;;;6.57;0.75;;;4.40;99.90;;;;;;6155563;23;20017;-83
2022/01/05 03:36:50;;;;;;;8.38;1.27;;;4.40;99.90;;;;;;6180566;23;20013;-83
2022/01/05 03:39:16;;;;;;;8.57;1.00;;;4.40;99.90;;;;;;6178309;23;20037;-83
2022/01/05 03:41:45;;;;;;;10.30;1.73;;;4.40;99.90;;;;;;6154823;23;20013;-83
2022/01/05 03:44:10;;;;;;;11.60;1.52;;;4.30;99.90;;;;;;6180027;23;20091;-83
2022/01/05 03:46:36;;;;;;;10.15;2.45;;;4.30;99.90;;;;;;6181579;23;20047;-84
2022/01/05 03:49:02;;;;;;;12.30;1.15;;;4.30;99.90;;;;;;6181529;23;20324;-83
2022/01/05 03:51:28;;;;;;;10.90;1.50;;;4.20;99.90;;;;;;6181790;23;20005;-83
2022/01/05 03:53:53;;;;;;;8.40;0.82;;;4.20;99.90;;;;;;6180638;23;20023;-83
2022/01/05 03:56:19;;;;;;;13.43;1.23;;;4.20;99.90;;;;;;6181688;23;20059;-83
2022/01/05 03:58:44;;;;;;;6.72;0.95;;;4.10;99.90;;;;;;6181532;23;20096;-83
2022/01/05 04:01:10;;;;;;;5.68;0.95;;;4.20;99.90;;;;;;6181283;23;20071;-83
2022/01/05 04:03:36;;;;;;;8.20;1.13;;;4.20;99.90;;;;;;6181002;23;20048;-83
2022/01/05 04:06:02;;;;;;;11.80;1.30;;;4.20;99.90;;;;;;6181761;23;20348;-83
2022/01/05 04:08:28;;;;;;;11.90;1.30;;;4.20;99.90;;;;;;6180856;23;20016;-83
2022/01/05 04:10:53;;;;;;;10.02;0.88;;;4.20;99.90;;;;;;6181175;23;20035;-83
2022/01/05 04:13:20;;;;;;;9.27;1.30;;;4.30;99.90;;;;;;6157082;23;20012;-83
2022/01/05 04:15:45;;;;;;;6.13;1.00;;;4.30;99.90;;;;;;6180576;23;20384;-83
2022/01/05 04:18:11;;;;;;;7.97;1.42;;;4.40;99.90;;;;;;6156321;23;20047;-83
2022/01/05 04:20:36;;;;;;;7.05;1.00;;;4.40;99.90;;;;;;6179405;23;20360;-83
2022/01/05 04:23:02;;;;;;;11.15;1.10;;;4.40;99.90;;;;;;6179360;23;20064;-83
2022/01/05 04:25:28;;;;;;;10.43;1.73;;;4.40;99.90;;;;;;6180888;23;20009;-83
2022/01/05 04:27:53;;;;;;;11.93;1.65;;;4.40;99.90;;;;;;6181069;23;20013;-83
2022/01/05 04:30:19;;;;;;;9.55;1.00;;;4.40;99.90;;;;;;6181155;23;20100;-83
2022/01/05 04:32:45;;;;;;;8.45;1.20;;;4.50;99.90;;;;;;6156746;23;20017;-83
2022/01/05 04:35:13;;;;;;;11.52;0.98;;;4.60;99.90;;;;;;6156506;23;20013;-83
2022/01/05 04:37:40;;;;;;;10.85;1.25;;;4.60;99.90;;;;;;6180978;23;20021;-83
2022/01/05 04:40:07;;;;;;;13.13;1.42;;;4.60;99.90;;;;;;6155460;23;20040;-83
2022/01/05 04:42:33;;;;;;;9.65;1.02;;;4.60;99.90;;;;;;6157576;23;20432;-83
2022/01/05 04:44:59;;;;;;;9.93;0.85;;;4.60;99.90;;;;;;6182631;23;20020;-83
2022/01/05 04:47:24;;;;;;;8.73;1.15;;;4.60;99.90;;;;;;6182433;23;20069;-83
2022/01/05 04:49:50;;;;;;;8.10;1.50;;;4.60;99.90;;;;;;6182325;23;20092;-83
2022/01/05 04:52:16;;;;;;;9.32;1.00;;;4.60;99.90;;;;;;6180545;23;20323;-83
2022/01/05 04:54:41;;;;;;;6.03;0.82;;;4.60;99.90;;;;;;6156188;23;20321;-83
2022/01/05 04:57:07;;;;;;;8.80;0.98;;;4.60;99.90;;;;;;6181783;23;20029;-83
2022/01/05 04:59:34;;;;;;;10.57;1.55;;;4.60;99.90;;;;;;6182103;23;20017;-83
2022/01/05 05:01:59;;;;;;;7.93;0.90;;;4.70;99.90;;;;;;6182267;23;20712;-83
2022/01/05 05:04:25;;;;;;;8.40;0.80;;;4.60;99.90;;;;;;6181371;23;20017;-83
2022/01/05 05:06:51;;;;;;;10.75;0.70;;;4.60;99.90;;;;;;6157394;23;20021;-83
2022/01/05 05:09:18;;;;;;;10.48;1.13;;;4.60;99.90;;;;;;6155794;23;20459;-83
2022/01/05 05:11:43;;;;;;;6.63;1.10;;;4.60;99.90;;;;;;6180755;23;20035;-83
2022/01/05 05:14:10;;;;;;;6.60;0.77;;;4.60;99.90;;;;;;6181393;23;20021;-83
2022/01/05 05:16:35;;;;;;;6.25;0.80;;;4.70;99.90;;;;;;6157227;23;20071;-83
2022/01/05 05:19:01;;;;;;;7.93;0.93;;;4.80;99.90;;;;;;6181221;23;20080;-83
2022/01/05 05:21:27;;;;;;;8.02;0.98;;;4.90;99.90;;;;;;6181304;23;20009;-83
2022/01/05 05:23:52;;;;;;;9.25;1.00;;;4.90;99.90;;;;;;6156086;23;20080;-83
2022/01/05 05:26:18;;;;;;;5.10;0.50;;;4.90;99.90;;;;;;6157182;23;20072;-83
2022/01/05 05:28:43;;;;;;;6.80;0.80;;;5.00;99.90;;;;;;6181109;23;20067;-83
2022/01/05 05:31:09;;;;;;;9.48;2.08;;;5.10;99.90;;;;;;6157301;23;20005;-83
2022/01/05 05:33:35;;;;;;;9.02;1.23;;;5.00;99.90;;;;;;6156087;23;20079;-83
2022/01/05 05:36:02;;;;;;;8.63;1.88;;;5.00;99.90;;;;;;6181913;23;20168;-83
2022/01/05 05:38:28;;;;;;;13.00;1.25;;;4.90;99.90;;;;;;6180513;23;20009;-83
2022/01/05 05:40:54;;;;;;;8.93;0.80;;;4.90;99.90;;;;;;6181483;23;20024;-83
2022/01/05 05:43:19;;;;;;;7.47;1.25;;;4.90;99.90;;;;;;6182515;23;20013;-83
2022/01/05 05:45:45;;;;;;;6.43;0.95;;;4.90;99.90;;;;;;6182050;23;20013;-83
2022/01/05 05:48:11;;;;;;;13.57;1.27;;;4.90;99.90;;;;;;6183375;23;20017;-83
2022/01/05 05:50:37;;;;;;;13.45;1.33;;;4.90;99.90;;;;;;6159663;23;20009;-83
2022/01/05 05:53:03;;;;;;;11.68;0.80;;;5.00;99.90;;;;;;6159384;23;20013;-83
2022/01/05 05:55:28;;;;;;;9.25;1.10;;;5.00;99.90;;;;;;6157237;23;20526;-83
2022/01/05 05:57:54;;;;;;;18.58;1.63;;;5.10;99.90;;;;;;6182001;23;20017;-83
2022/01/05 06:00:20;;;;;;;10.63;1.35;;;5.10;99.90;;;;;;6181675;23;20480;-83
2022/01/05 06:02:47;;;;;;;8.07;1.17;;;5.10;99.90;;;;;;6181298;23;20021;-83
2022/01/05 06:05:13;;;;;;;11.05;1.13;;;5.10;99.90;;;;;;6179937;23;20051;-83
2022/01/05 06:07:38;;;;;;;8.57;1.42;;;5.00;99.90;;;;;;6180317;23;20009;-83
2022/01/05 06:10:04;;;;;;;7.97;0.88;;;4.90;99.90;;;;;;6180160;23;20352;-83
2022/01/05 06:12:30;;;;;;;13.75;1.50;;;4.90;99.90;;;;;;6156509;23;20403;-83
2022/01/05 06:14:56;;;;;;;13.40;1.25;;;4.90;99.90;;;;;;6180992;23;20052;-83
2022/01/05 06:17:21;;;;;;;12.05;1.75;;;4.80;99.90;;;;;;6181438;23;20416;-83
2022/01/05 06:19:47;;;;;;;11.40;1.20;;;4.80;99.90;;;;;;6180203;23;20017;-83
2022/01/05 06:22:12;;;;;;;12.23;1.38;;;4.80;99.90;;;;;;6180277;23;20084;-83
2022/01/05 06:24:42;;;;;;;11.07;1.27;;;4.70;99.90;;;;;;6178663;23;20028;-83
2022/01/05 06:27:09;;;;;;;9.75;1.05;;;4.70;99.90;;;;;;6180627;23;20375;-83
2022/01/05 06:29:36;;;;;;;7.70;1.25;;;4.60;99.90;;;;;;6180770;23;20032;-83
2022/01/05 06:32:03;;;;;;;9.05;1.13;;;4.60;99.90;;;;;;6180314;23;20024;-83
2022/01/05 06:34:29;;;;;;;13.05;1.13;;;4.60;99.90;;;;;;6154809;23;20115;-83
2022/01/05 06:36:54;;;;;;;8.10;0.73;;;4.60;99.90;;;;;;6155604;23;20527;-83
2022/01/05 06:39:20;;;;;;;11.70;1.52;;;4.60;99.90;;;;;;6178985;23;20032;-83
2022/01/05 06:41:46;;;;;;;12.52;2.10;;;4.60;99.90;;;;;;6180929;23;20017;-83
2022/01/05 06:44:11;;;;;;;14.70;1.27;;;4.50;99.90;;;;;;6180080;23;20040;-83
2022/01/05 06:46:37;;;;;;;10.35;0.90;;;4.50;99.90;;;;;;6180752;23;20006;-83
2022/01/05 06:49:03;;;;;;;8.52;1.73;;;4.40;99.90;;;;;;6180736;23;20044;-83
2022/01/05 06:51:29;;;;;;;11.73;0.93;;;4.30;99.90;;;;;;6180510;23;20049;-83
2022/01/05 06:53:54;;;;;;;15.82;3.30;;;4.30;99.90;;;;;;6179955;23;20021;-83
2022/01/05 06:56:20;;;;;;;9.90;1.13;;;4.30;99.90;;;;;;6180026;23;20426;-83
2022/01/05 06:58:45;;;;;;;7.55;0.80;;;4.40;99.90;;;;;;6180737;23;20023;-83
2022/01/05 07:01:11;;;;;;;7.18;0.95;;;4.30;99.90;;;;;;6154608;23;20451;-83
2022/01/05 07:03:37;;;;;;;6.38;0.77;;;4.40;99.90;;;;;;6154867;23;20415;-83
2022/01/05 07:06:04;;;;;;;10.60;1.40;;;4.40;99.90;;;;;;6179714;23;20443;-83
2022/01/05 07:08:30;;;;;;;9.60;1.17;;;4.50;99.90;;;;;;6178689;23;20091;-83
2022/01/05 07:10:56;;;;;;;9.13;1.08;;;4.50;99.90;;;;;;6179896;23;20131;-83
2022/01/05 07:13:22;;;;;;;7.00;0.93;;;4.50;99.90;;;;;;6180471;23;20021;-83
2022/01/05 07:15:48;;;;;;;14.32;1.27;;;4.50;99.90;;;;;;6179606;23;20009;-83
2022/01/05 07:18:14;;;;;;;13.98;2.08;;;4.60;99.90;;;;;;6180065;23;20019;-83
2022/01/05 07:20:40;;;;;;;12.75;1.27;;;4.70;99.90;;;;;;6153815;23;20358;-83
2022/01/05 07:23:06;;;;;;;14.68;1.73;;;4.70;99.90;;;;;;6179041;23;20080;-83
2022/01/05 07:25:31;;;;;;;14.57;1.60;;;4.70;99.90;;;;;;6178896;23;20071;-83
2022/01/05 07:27:57;;;;;;;13.35;1.52;;;4.80;99.90;;;;;;6154061;23;20047;-83
2022/01/05 07:30:22;;;;;;;11.57;1.55;;;4.80;99.90;;;;;;6178052;23;20122;-83
2022/01/05 07:32:48;;;;;;;11.32;1.20;;;4.90;99.90;;;;;;6152640;23;20104;-83
2022/01/05 07:35:14;;;;;;;15.30;1.90;;;4.90;99.90;;;;;;6178668;23;20095;-83
2022/01/05 07:37:39;;;;;;;11.85;1.98;;;5.00;99.90;;;;;;6178349;23;20024;-83
2022/01/05 07:40:06;;;;;;;7.55;0.95;;;5.00;99.90;;;;;;6179236;23;20039;-83
2022/01/05 07:42:33;;;;;;;13.23;1.00;;;5.00;99.90;;;;;;6155230;23;20052;-83
2022/01/05 07:45:00;;;;;;;7.65;1.40;;;4.90;99.90;;;;;;6154957;23;20013;-83
2022/01/05 07:47:26;;;;;;;8.07;1.17;;;4.90;99.90;;;;;;6178423;23;20041;-82
2022/01/05 07:49:51;;;;;;;5.15;0.77;;;5.00;99.90;;;;;;6179343;23;20448;-83
2022/01/05 07:52:17;;;;;;;11.00;2.08;;;5.00;99.90;;;;;;6153354;23;20096;-83
2022/01/05 07:54:43;;;;;;;9.88;1.30;;;5.00;99.90;;;;;;6128533;23;20013;-83
2022/01/05 07:57:08;;;;;;;8.05;0.60;;;5.00;99.90;;;;;;6153206;23;20019;-83
2022/01/05 07:59:34;;;;;;;14.13;1.30;;;5.00;99.90;;;;;;6153613;23;20017;-83
2022/01/05 08:01:59;;;;;;;13.63;0.90;;;5.00;99.90;;;;;;6177949;23;20320;-83
2022/01/05 08:04:25;;;;;;;8.70;1.25;;;5.10;99.90;;;;;;6177718;23;20024;-83
2022/01/05 08:06:51;;;;;;;13.02;1.27;;;5.00;99.90;;;;;;6154307;23;20021;-83
2022/01/05 08:09:16;;;;;;;9.13;0.98;;;5.10;99.90;;;;;;6153438;23;20057;-83
2022/01/05 08:11:42;;;;;;;10.93;0.88;;;5.00;99.90;;;;;;6179110;23;20420;-83
2022/01/05 08:14:08;;;;;;;8.07;1.00;;;5.10;99.90;;;;;;6178723;23;20451;-83
2022/01/05 08:16:33;;;;;;;9.15;1.08;;;5.10;99.90;;;;;;6179244;23;20036;-83
2022/01/05 08:18:59;;;;;;;16.23;1.80;;;5.20;99.90;;;;;;6178778;23;20015;-83
2022/01/05 08:21:24;;;;;;;12.45;1.17;;;5.20;99.90;;;;;;6179002;23;20021;-83
2022/01/05 08:23:50;;;;;;;7.90;1.88;;;5.20;99.90;;;;;;6178181;23;20514;-83
2022/01/05 08:26:16;;;;;;;11.07;1.85;;;5.20;99.90;;;;;;6179391;23;20004;-83
2022/01/05 08:28:41;;;;;;;12.38;0.88;;;5.20;99.90;;;;;;6153367;23;20132;-83
2022/01/05 08:31:07;;;;;;;12.48;1.27;;;5.30;99.90;;;;;;6178066;23;20017;-83
2022/01/05 08:33:34;;;;;;;7.28;1.27;;;5.30;99.90;;;;;;6155526;23;20459;-82
2022/01/05 08:36:01;;;;;;;14.82;1.75;;;5.30;99.90;;;;;;6181348;23;20051;-82
2022/01/05 08:38:27;;;;;;;8.85;1.00;;;5.30;99.90;;;;;;6180381;23;20352;-82
2022/01/05 08:40:53;;;;;;;11.98;1.10;;;5.30;99.90;;;;;;6156128;23;20009;-82
2022/01/05 08:43:19;;;;;;;7.70;1.33;;;5.30;99.90;;;;;;6156503;23;20009;-82
2022/01/05 08:45:45;;;;;;;11.07;1.20;;;5.30;99.90;;;;;;6180914;23;20067;-82
2022/01/05 08:48:13;;;;;;;7.97;1.75;;;5.30;99.90;;;;;;6181094;23;20020;-82
2022/01/05 08:50:41;;;;;;;10.32;1.65;;;5.30;99.90;;;;;;6155283;23;20009;-82
2022/01/05 08:53:07;;;;;;;9.90;1.38;;;5.30;99.90;;;;;;6180460;23;20327;-82
2022/01/05 08:55:37;;;;;;;11.27;1.40;;;5.40;99.90;;;;;;6179174;23;20016;-82
2022/01/05 08:58:04;;;;;;;9.52;1.70;;;5.40;99.90;;;;;;6182145;23;20397;-82
2022/01/05 09:00:30;;;;;;;9.68;1.30;;;5.40;99.90;;;;;;6156694;23;20041;-82
2022/01/05 09:02:56;;;;;;;10.55;1.20;;;5.40;99.90;;;;;;6156436;23;20013;-82
2022/01/05 09:05:23;;;;;;;9.38;1.13;;;5.50;99.90;;;;;;6157075;23;20508;-82
2022/01/05 09:07:48;;;;;;;14.18;1.38;;;5.60;99.90;;;;;;6156322;23;20368;-82
2022/01/05 09:10:14;;;;;;;17.27;2.05;;;5.50;99.90;;;;;;6180833;23;20139;-82
2022/01/05 09:12:39;;;;;;;16.35;1.65;;;5.50;99.90;;;;;;6156891;23;20017;-82
2022/01/05 09:15:05;;;;;;;10.95;1.15;;;5.50;99.90;;;;;;6155991;23;20344;-82
2022/01/05 09:17:31;;;;;;;13.43;1.00;;;5.50;99.90;;;;;;6181459;23;20013;-82
2022/01/05 09:19:57;;;;;;;15.27;1.08;;;5.50;99.90;;;;;;6181521;23;20024;-82
2022/01/05 09:22:23;;;;;;;11.13;1.00;;;5.40;99.90;;;;;;6181261;23;20019;-82
2022/01/05 09:24:51;;;;;;;10.05;1.00;;;5.30;99.90;;;;;;6179662;23;20048;-82
2022/01/05 09:27:17;;;;;;;14.23;1.23;;;5.30;99.90;;;;;;6156914;23;20088;-82
2022/01/05 09:29:43;;;;;;;11.75;1.25;;;5.30;99.90;;;;;;6153908;23;20452;-82
2022/01/05 09:32:09;;;;;;;12.82;1.45;;;5.50;99.90;;;;;;6156273;23;20096;-82
2022/01/05 09:34:40;;;;;;;20.42;2.17;;;5.60;99.90;;;;;;6156563;23;20071;-82
2022/01/05 09:37:13;;;;;;;18.27;1.85;;;5.60;99.90;;;;;;6181105;23;20024;-82
2022/01/05 09:42:23;;;;;;;10.13;1.10;;;5.70;99.90;;;;;;6179500;23;20017;-82
2022/01/05 09:44:52;;;;;;;10.85;1.30;;;5.70;99.90;;;;;;6178631;23;20013;-82
2022/01/05 09:47:30;;;;;;;8.70;1.38;;;5.70;99.90;;;;;;6179183;23;20067;-82
2022/01/05 09:50:05;;;;;;;7.85;0.85;;;5.70;99.90;;;;;;6179072;23;20124;-82
2022/01/05 09:52:32;;;;;;;7.03;0.70;;;5.80;99.90;;;;;;6154186;23;20542;-82
2022/01/05 09:54:58;;;;;;;12.88;1.17;;;5.80;99.90;;;;;;6174762;23;20040;-82
2022/01/05 09:57:24;;;;;;;15.40;2.58;;;5.80;99.90;;;;;;6176681;23;20017;-82
2022/01/05 09:59:51;;;;;;;11.40;1.30;;;5.90;99.90;;;;;;6178184;23;20339;-83
2022/01/05 10:02:19;;;;;;;12.23;1.30;;;5.90;99.90;;;;;;6127146;23;20064;-83
2022/01/05 10:04:46;;;;;;;11.68;1.13;;;6.00;99.90;;;;;;6178192;23;20064;-83
2022/01/05 10:07:13;;;;;;;11.80;1.42;;;6.00;99.90;;;;;;6147453;23;20031;-82
2022/01/05 10:09:40;;;;;;;14.45;1.65;;;6.00;99.90;;;;;;6154072;23;20091;-82
2022/01/05 10:12:08;;;;;;;10.57;1.23;;;6.10;99.90;;;;;;6180263;23;20088;-83
2022/01/05 10:14:34;;;;;;;13.60;1.73;;;6.10;99.90;;;;;;6177980;23;20064;-82
2022/01/05 10:17:04;;;;;;;15.63;1.52;;;6.30;99.90;;;;;;6178534;23;20060;-82
2022/01/05 10:19:30;;;;;;;13.35;1.38;;;6.30;99.90;;;;;;6153414;23;20039;-82
2022/01/05 10:21:57;;;;;;;9.00;1.08;;;6.40;99.90;;;;;;6178714;23;20013;-82
2022/01/05 10:24:42;;;;;;;9.18;0.90;;;6.40;99.90;;;;;;6151155;23;20015;-82
2022/01/05 10:27:08;;;;;;;8.32;1.02;;;6.50;99.90;;;;;;6155038;23;20013;-82
2022/01/05 10:29:34;;;;;;;6.65;0.65;;;6.50;99.90;;;;;;6178394;23;20115;-82
2022/01/05 10:32:01;;;;;;;3.63;0.47;;;6.60;99.90;;;;;;6178616;23;20017;-82
2022/01/05 10:34:32;;;;;;;6.65;0.50;;;6.50;99.90;;;;;;6178511;23;20366;-82
2022/01/05 10:37:06;;;;;;;5.75;0.40;;;6.50;99.90;;;;;;6154709;23;20319;-82
2022/01/05 10:39:42;;;;;;;5.65;1.02;;;6.40;99.90;;;;;;6177262;23;20028;-82
2022/01/05 10:42:12;;;;;;;9.43;0.80;;;6.40;99.90;;;;;;6178460;23;20016;-82
2022/01/05 10:44:41;;;;;;;10.13;0.55;;;6.50;99.90;;;;;;6178331;23;20009;-82
2022/01/05 10:47:07;;;;;;;8.25;1.50;;;6.40;99.90;;;;;;6154328;23;20009;-82
2022/01/05 10:49:38;;;;;;;7.70;0.73;;;6.40;99.90;;;;;;6179191;23;20005;-82
2022/01/05 10:52:24;;;;;;;11.82;1.65;;;6.40;99.90;;;;;;6151808;23;20017;-82
2022/01/05 10:54:50;;;;;;;10.10;1.02;;;6.40;99.90;;;;;;6176068;23;20128;-82
2022/01/05 10:57:17;;;;;;;12.00;1.30;;;6.50;99.90;;;;;;6154847;23;20016;-82
2022/01/05 10:59:53;;;;;;;8.88;1.20;;;6.40;99.90;;;;;;6178053;23;20088;-82
2022/01/05 11:02:25;;;;;;;9.60;1.33;;;6.40;99.90;;;;;;6154196;23;20012;-82
2022/01/05 11:05:16;;;;;;;13.38;1.88;;;6.50;99.90;;;;;;6177905;23;20017;-82
2022/01/05 11:07:46;;;;;;;12.10;2.70;;;6.60;99.90;;;;;;6152737;23;20067;-82
2022/01/05 11:10:14;;;;;;;14.88;1.83;;;6.80;99.90;;;;;;6152953;23;20092;-82
2022/01/05 11:12:44;;;;;;;11.27;1.80;;;6.90;99.90;;;;;;6178449;23;20100;-82
2022/01/05 11:15:32;;;;;;;13.20;2.00;;;7.30;99.90;;;;;;6151288;23;20013;-82
2022/01/05 11:18:09;;;;;;;7.15;0.90;;;7.90;99.90;;;;;;6146259;23;20048;-82
2022/01/05 11:20:59;;;;;;;13.82;1.55;;;8.20;99.90;;;;;;6148549;23;20187;-82
2022/01/05 11:23:27;;;;;;;6.50;1.30;;;8.50;99.90;;;;;;6166051;23;20013;-83
2022/01/05 11:25:54;;;;;;;9.80;0.85;;;8.80;99.90;;;;;;6176620;23;20473;-83
2022/01/05 11:28:22;;;;;;;9.23;1.38;;;8.70;99.90;;;;;;6152379;23;20009;-83
2022/01/05 11:30:50;;;;;;;10.55;1.17;;;8.60;99.90;;;;;;6152670;23;20130;-82
2022/01/05 11:33:17;;;;;;;11.68;1.17;;;8.40;99.90;;;;;;6175272;23;20017;-82
2022/01/05 11:35:43;;;;;;;16.13;1.00;;;8.20;99.90;;;;;;6177724;23;20040;-82
2022/01/05 11:38:11;;;;;;;9.82;1.50;;;7.90;99.90;;;;;;6176547;23;20392;-82
2022/01/05 11:40:39;;;;;;;6.45;0.98;;;7.70;99.90;;;;;;6176784;23;20013;-82
2022/01/05 11:43:12;;;;;;;7.03;0.63;;;7.50;99.90;;;;;;6178610;23;20339;-82
2022/01/05 11:45:47;;;;;;;8.55;0.80;;;7.30;99.90;;;;;;6178839;23;20013;-82
2022/01/05 11:48:17;;;;;;;10.23;1.30;;;7.20;99.90;;;;;;6151471;23;20092;-82
2022/01/05 11:50:57;;;;;;;8.23;1.23;;;6.90;99.90;;;;;;6151193;23;20005;-83
2022/01/05 11:53:39;;;;;;;5.15;0.75;;;6.80;99.90;;;;;;6175393;23;20049;-83
2022/01/05 11:56:20;;;;;;;7.97;0.70;;;6.70;99.90;;;;;;6151897;23;20013;-82
2022/01/05 11:58:55;;;;;;;8.00;1.35;;;7.10;99.90;;;;;;6176339;23;20020;-82
2022/01/05 12:01:24;;;;;;;11.98;1.60;;;7.80;99.90;;;;;;6178268;23;20017;-82
2022/01/05 12:03:49;;;;;;;11.50;1.80;;;8.20;99.90;;;;;;6149966;23;20017;-82
2022/01/05 12:06:16;;;;;;;12.68;1.23;;;8.20;99.90;;;;;;6153364;23;20071;-82
2022/01/05 12:09:21;;;;;;;13.13;1.48;;;8.00;99.90;;;;;;6179803;23;20032;-83
2022/01/05 12:11:47;;;;;;;12.10;1.92;;;7.70;99.90;;;;;;6180185;23;20047;-83
2022/01/05 12:14:22;;;;;;;14.95;1.67;;;7.40;99.90;;;;;;6179601;23;20023;-83
2022/01/05 12:17:03;;;;;;;10.35;1.10;;;7.20;99.90;;;;;;6154107;23;20474;-83
2022/01/05 12:19:48;;;;;;;10.02;1.90;;;7.00;99.90;;;;;;6156248;23;20017;-83
2022/01/05 12:22:19;;;;;;;8.98;1.10;;;6.90;99.90;;;;;;6180711;23;20060;-83
2022/01/05 12:25:09;;;;;;;4.82;0.75;;;6.90;99.90;;;;;;6155529;23;20088;-83
2022/01/05 12:27:57;;;;;;;9.38;1.23;;;6.80;99.90;;;;;;6182037;23;20020;-83
2022/01/05 12:30:26;;;;;;;9.77;1.00;;;6.80;99.90;;;;;;6182476;23;20416;-83
2022/01/05 12:33:12;;;;;;;11.07;1.10;;;6.90;99.90;;;;;;6182354;23;20017;-82
2022/01/05 12:35:47;;;;;;;9.88;1.13;;;7.00;99.90;;;;;;6156777;23;20013;-82
2022/01/05 12:38:36;;;;;;;10.63;0.90;;;7.10;99.90;;;;;;6181227;23;20021;-82
2022/01/05 12:41:38;;;;;;;7.13;1.15;;;7.10;99.90;;;;;;6180071;23;20309;-82
2022/01/05 12:44:26;;;;;;;11.02;1.25;;;7.20;99.90;;;;;;6178377;23;20013;-82
2022/01/05 12:46:53;;;;;;;8.63;0.57;;;7.20;99.90;;;;;;6180736;23;20020;-83
2022/01/05 12:49:33;;;;;;;8.55;1.10;;;7.30;99.90;;;;;;6181213;23;20373;-83
2022/01/05 12:52:04;;;;;;;7.05;1.48;;;7.30;99.90;;;;;;6155516;23;20355;-83
2022/01/05 12:54:41;;;;;;;4.88;0.50;;;7.30;99.90;;;;;;6154333;23;20055;-83
2022/01/05 12:57:14;;;;;;;4.38;0.30;;;7.20;99.90;;;;;;6155655;23;20015;-83
2022/01/05 12:59:44;;;;;;;7.88;0.45;;;7.10;99.90;;;;;;6155854;23;20017;-83
2022/01/05 13:02:11;;;;;;;6.70;0.93;;;7.10;99.90;;;;;;6179293;23;20405;-83